Terminal Aerodrome Forecast
Issued by NWS

Home | Current Version | Previous Version | Text Only | Print | Product List | Glossary On
Versions: 1 2 3 4 5 6 7 8 9 10 11 12 13 14 15 16 17 18 19 20 21 22 23 24 25 26 27 28 29 30
000
FTUS45 KGJT 141120
TAFTEX
TAF
KTEX 141120Z 1412/1512 VRB03KT P6SM SCT045 SCT050 OVC080
     FM141600 27004KT P6SM FEW025 SCT070
     FM142000 26008KT P6SM FEW045 FEW250
     FM142300 27010G20KT P6SM FEW080 FEW250
     FM150200 13006KT P6SM SKC=

USA.gov is the U.S. government's official web portal to all federal, state and local government web resources and services.